Time;durP1;ratioP1;P1;durP2;ratioP2;P2;SDS_P1;SDS_P2;PMS_P1;PMS_P2;Temp;Humidity;BMP_temperature;BMP_pressure;BME280_temperature;BME280_humidity;BME280_pressure;Samples;Min_cycle;Max_cycle;Signal;HPM_P1;HPM_P2
2022/03/06 00:00:09;;;;;;;19.90;9.10;;;1.70;99.90;;;;;;5021343;28;20053;-86
2022/03/06 00:02:36;;;;;;;20.70;9.48;;;0.50;99.90;;;;;;5031584;28;20508;-86
2022/03/06 00:05:06;;;;;;;23.58;10.52;;;1.60;99.90;;;;;;5030388;28;20079;-87
2022/03/06 00:07:35;;;;;;;21.75;9.73;;;;;;;;;;5020649;28;20053;-88
2022/03/06 00:10:01;;;;;;;21.38;9.25;;;;;;;;;;5032487;28;20052;-90
2022/03/06 00:12:30;;;;;;;18.77;9.88;;;-0.40;99.90;;;;;;5022003;28;20053;-87
2022/03/06 00:14:58;;;;;;;22.55;10.40;;;1.80;99.90;;;;;;5018767;28;20056;-90
2022/03/06 00:17:26;;;;;;;20.77;10.60;;;1.40;99.90;;;;;;5037254;28;20048;-89
2022/03/06 00:19:52;;;;;;;23.27;10.65;;;1.30;99.90;;;;;;5006621;28;20049;-87
2022/03/06 00:22:20;;;;;;;23.55;10.73;;;0.10;99.90;;;;;;5001258;28;20053;-88
2022/03/06 00:24:49;;;;;;;21.85;9.95;;;1.70;99.90;;;;;;5001980;28;20138;-89
2022/03/06 00:27:14;;;;;;;23.95;10.43;;;2.00;99.90;;;;;;5034601;28;20096;-85
2022/03/06 00:29:40;;;;;;;20.80;10.65;;;1.70;99.90;;;;;;5001244;28;20045;-85
2022/03/06 00:32:08;;;;;;;22.38;11.02;;;1.70;99.90;;;;;;5018067;28;20046;-85
2022/03/06 00:34:34;;;;;;;22.00;10.70;;;2.00;99.90;;;;;;5001196;28;20516;-86
2022/03/06 00:37:00;;;;;;;21.92;11.13;;;1.90;99.90;;;;;;5017664;28;20049;-85
2022/03/06 00:39:29;;;;;;;22.75;11.32;;;1.20;99.90;;;;;;5019534;28;20052;-87
2022/03/06 00:41:54;;;;;;;20.80;10.52;;;1.70;99.90;;;;;;5020311;28;20453;-86
2022/03/06 00:44:21;;;;;;;23.10;11.45;;;-0.40;99.90;;;;;;5004750;28;20045;-86
2022/03/06 00:46:47;;;;;;;23.55;12.35;;;1.80;99.90;;;;;;5037206;28;20203;-85
2022/03/06 00:49:15;;;;;;;25.02;11.95;;;1.10;99.90;;;;;;5037574;28;20056;-86
2022/03/06 00:51:41;;;;;;;22.30;11.52;;;1.80;99.90;;;;;;5036321;28;20064;-86
2022/03/06 00:54:07;;;;;;;24.83;12.50;;;-0.10;99.90;;;;;;5004739;28;20051;-86
2022/03/06 00:56:33;;;;;;;22.88;12.02;;;-0.50;99.90;;;;;;5003273;28;20088;-86
2022/03/06 00:58:58;;;;;;;22.63;10.77;;;1.30;99.90;;;;;;5020037;28;20053;-86
2022/03/06 01:01:24;;;;;;;24.90;12.20;;;-1.20;99.90;;;;;;5016895;28;20042;-86
2022/03/06 01:03:50;;;;;;;25.52;12.07;;;1.60;99.90;;;;;;5016973;28;20053;-86
2022/03/06 01:06:16;;;;;;;26.00;12.07;;;0.50;99.90;;;;;;5017392;28;20514;-86
2022/03/06 01:08:42;;;;;;;25.88;13.10;;;0.10;99.90;;;;;;5016264;28;20046;-86
2022/03/06 01:11:07;;;;;;;23.02;12.07;;;1.20;99.90;;;;;;5017188;28;20056;-86
2022/03/06 01:13:33;;;;;;;24.98;12.77;;;1.50;99.90;;;;;;5016421;28;20045;-86
2022/03/06 01:15:59;;;;;;;25.88;13.55;;;0.80;99.90;;;;;;5000564;28;20103;-86
2022/03/06 01:18:25;;;;;;;24.20;13.27;;;;;;;;;;5017067;28;20084;-87
2022/03/06 01:20:51;;;;;;;25.30;12.30;;;-0.30;99.90;;;;;;5016054;28;20107;-87
2022/03/06 01:23:17;;;;;;;26.52;13.60;;;1.00;99.90;;;;;;5016544;28;20053;-87
2022/03/06 01:25:42;;;;;;;27.92;14.30;;;-0.30;99.90;;;;;;5002535;28;20050;-87
2022/03/06 01:28:08;;;;;;;27.05;13.18;;;1.50;99.90;;;;;;5036860;28;20045;-86
2022/03/06 01:30:34;;;;;;;22.98;12.65;;;-1.00;99.90;;;;;;5036273;28;20056;-87
2022/03/06 01:33:00;;;;;;;25.30;12.20;;;-1.50;99.90;;;;;;5036584;28;20087;-87
2022/03/06 01:35:26;;;;;;;24.70;13.20;;;0.20;99.90;;;;;;5036994;28;20126;-87
2022/03/06 01:37:52;;;;;;;23.13;13.07;;;;;;;;;;5036017;28;20482;-87
2022/03/06 01:40:19;;;;;;;24.77;12.88;;;-0.50;99.90;;;;;;5020167;28;20057;-87
2022/03/06 01:42:46;;;;;;;26.40;13.50;;;-0.50;99.90;;;;;;5019429;28;20049;-87
2022/03/06 01:45:14;;;;;;;25.15;12.25;;;-0.50;99.90;;;;;;5036275;28;20044;-87
2022/03/06 01:47:44;;;;;;;23.05;12.88;;;-0.20;99.90;;;;;;5019804;28;20087;-87
2022/03/06 01:50:13;;;;;;;22.67;13.15;;;-0.60;99.90;;;;;;5002978;28;20132;-86
2022/03/06 01:52:43;;;;;;;25.38;12.68;;;0.40;99.90;;;;;;5032410;28;20091;-87
2022/03/06 01:55:10;;;;;;;27.67;13.00;;;-0.60;99.90;;;;;;5016495;28;20053;-87
2022/03/06 01:57:40;;;;;;;24.00;12.63;;;0.70;99.90;;;;;;4999732;28;20127;-87
2022/03/06 02:00:09;;;;;;;23.60;12.00;;;-0.40;99.90;;;;;;5016371;28;20149;-87
2022/03/06 02:02:35;;;;;;;29.90;13.82;;;-0.70;99.90;;;;;;4999318;28;20052;-86
2022/03/06 02:05:08;;;;;;;25.38;13.60;;;1.00;99.90;;;;;;5001109;28;20060;-87
2022/03/06 02:07:36;;;;;;;23.83;12.98;;;-0.70;99.90;;;;;;4999142;28;20521;-89
2022/03/06 02:10:08;;;;;;;22.88;12.27;;;0.10;99.90;;;;;;4999133;28;20060;-88
2022/03/06 02:12:36;;;;;;;26.38;13.38;;;-0.60;99.90;;;;;;5006384;28;20099;-89
2022/03/06 02:15:05;;;;;;;25.45;12.52;;;0.70;99.90;;;;;;5032232;28;20051;-87
2022/03/06 02:17:31;;;;;;;24.30;11.80;;;-0.70;99.90;;;;;;4998391;28;20470;-87
2022/03/06 02:20:09;;;;;;;27.33;12.65;;;-0.70;99.90;;;;;;4998100;28;20331;-88
2022/03/06 02:22:37;;;;;;;29.67;13.27;;;-0.80;99.90;;;;;;4997707;28;20053;-89
2022/03/06 02:25:15;;;;;;;23.15;12.20;;;0.00;99.90;;;;;;5014334;28;20491;-88
2022/03/06 02:27:41;;;;;;;29.38;12.38;;;-0.80;99.90;;;;;;5007826;28;20060;-87
2022/03/06 02:30:10;;;;;;;26.92;12.93;;;0.10;99.90;;;;;;5017873;28;20053;-87
2022/03/06 02:32:38;;;;;;;26.25;13.80;;;-0.90;99.90;;;;;;5033866;28;20049;-89
2022/03/06 02:35:05;;;;;;;22.30;12.05;;;0.60;99.90;;;;;;5014231;28;20161;-88
2022/03/06 02:37:31;;;;;;;23.40;12.35;;;-0.10;99.90;;;;;;4993023;28;20053;-87
2022/03/06 02:40:02;;;;;;;25.83;13.52;;;0.70;99.90;;;;;;5013749;28;20053;-88
2022/03/06 02:42:30;;;;;;;26.00;12.52;;;-0.60;99.90;;;;;;5016062;28;20057;-87
2022/03/06 02:44:58;;;;;;;24.05;12.85;;;0.30;99.90;;;;;;5016914;28;20055;-87
2022/03/06 02:47:27;;;;;;;27.92;12.52;;;-1.30;99.90;;;;;;5018584;28;20080;-88
2022/03/06 02:49:53;;;;;;;22.20;11.75;;;-2.00;99.90;;;;;;5034817;28;20045;-87
2022/03/06 02:52:19;;;;;;;27.00;12.07;;;-1.00;99.90;;;;;;5014633;28;20057;-89
2022/03/06 02:54:48;;;;;;;23.92;12.15;;;-0.20;99.90;;;;;;5014842;28;20130;-88
2022/03/06 02:57:14;;;;;;;23.83;11.90;;;0.10;99.90;;;;;;5011756;28;20038;-87
2022/03/06 02:59:40;;;;;;;30.30;13.05;;;-1.60;99.90;;;;;;4995166;28;20052;-87
2022/03/06 03:02:06;;;;;;;24.55;13.02;;;-1.20;99.90;;;;;;5031234;28;20050;-88
2022/03/06 03:04:37;;;;;;;23.50;11.77;;;0.40;99.90;;;;;;5015479;28;20103;-88
2022/03/06 03:07:03;;;;;;;23.40;11.77;;;0.00;99.90;;;;;;5014660;28;20044;-87
2022/03/06 03:09:33;;;;;;;;;;;-1.10;99.90;;;;;;5015821;28;20049;-87
2022/03/06 03:12:07;;;;;;;23.25;11.70;;;0.30;99.90;;;;;;5014650;28;19925;-87
2022/03/06 03:14:33;;;;;;;27.20;12.68;;;0.40;99.90;;;;;;5015353;28;20056;-87
2022/03/06 03:17:05;;;;;;;25.05;12.73;;;0.50;99.90;;;;;;5014779;28;20047;-87
2022/03/06 03:19:33;;;;;;;26.02;13.20;;;-0.80;99.90;;;;;;5031599;28;20048;-87
2022/03/06 03:21:59;;;;;;;22.95;12.02;;;0.50;99.90;;;;;;5014377;28;20285;-88
2022/03/06 03:24:25;;;;;;;26.60;11.88;;;-0.70;99.90;;;;;;5015078;28;20570;-87
2022/03/06 03:26:51;;;;;;;26.45;11.70;;;0.00;99.90;;;;;;5014511;28;20072;-88
2022/03/06 03:29:17;;;;;;;;;;;-1.50;99.90;;;;;;5032272;28;20053;-86
2022/03/06 03:31:46;;;;;;;22.50;10.70;;;0.70;99.90;;;;;;5014550;28;19948;-87
2022/03/06 03:34:14;;;;;;;28.58;12.05;;;0.10;99.90;;;;;;5031299;28;20045;-86
2022/03/06 03:36:40;;;;;;;25.35;11.70;;;-0.80;99.90;;;;;;5031224;28;20060;-88
2022/03/06 03:39:06;;;;;;;;;;;-0.80;99.90;;;;;;5031926;28;20045;-88
2022/03/06 03:41:34;;;;;;;23.45;11.55;;;-1.60;99.90;;;;;;5014748;28;19928;-87
2022/03/06 03:44:03;;;;;;;22.65;12.23;;;-1.00;99.90;;;;;;5014555;28;20480;-87
2022/03/06 03:46:29;;;;;;;23.17;11.45;;;-0.80;99.90;;;;;;5031459;28;20050;-87
2022/03/06 03:48:55;;;;;;;25.20;11.25;;;;;;;;;;5014776;28;20041;-87
2022/03/06 03:51:21;;;;;;;;;;;-0.70;99.90;;;;;;5012776;28;20140;-87
2022/03/06 03:53:47;;;;;;;20.60;10.20;;;1.00;99.90;;;;;;5000928;28;19921;-87
2022/03/06 03:56:15;;;;;;;22.40;10.95;;;0.90;99.90;;;;;;5011851;28;20108;-87
2022/03/06 03:58:43;;;;;;;18.60;9.30;;;-0.70;99.90;;;;;;4978919;28;20487;-90
2022/03/06 04:01:12;;;;;;;23.80;10.95;;;0.40;99.90;;;;;;4995265;28;20487;-88
2022/03/06 04:03:47;;;;;;;19.55;10.48;;;0.10;99.90;;;;;;4995425;28;20513;-87
2022/03/06 04:06:13;;;;;;;20.40;10.65;;;0.10;99.90;;;;;;4995626;28;20053;-87
2022/03/06 04:08:39;;;;;;;;;;;-1.10;99.90;;;;;;5011678;28;20046;-87
2022/03/06 04:11:05;;;;;;;18.98;11.02;;;0.60;99.90;;;;;;5010630;28;20015;-88
2022/03/06 04:13:34;;;;;;;20.48;9.95;;;0.00;99.90;;;;;;4997048;28;20108;-87
2022/03/06 04:16:02;;;;;;;18.52;9.65;;;-0.80;99.90;;;;;;5014320;28;20057;-87
2022/03/06 04:18:28;;;;;;;26.30;9.73;;;1.00;99.90;;;;;;5014813;28;20095;-87
2022/03/06 04:20:57;;;;;;;20.13;10.48;;;-0.80;99.90;;;;;;5011959;28;20077;-87
2022/03/06 04:23:23;;;;;;;21.50;11.10;;;0.00;99.90;;;;;;5014627;28;20049;-88
2022/03/06 04:25:51;;;;;;;19.80;9.68;;;0.60;99.90;;;;;;5014615;28;20057;-88
2022/03/06 04:28:20;;;;;;;20.00;9.48;;;0.40;99.90;;;;;;4997877;28;20049;-86
2022/03/06 04:30:45;;;;;;;19.50;10.10;;;0.00;99.90;;;;;;4996416;28;20049;-87
2022/03/06 04:33:11;;;;;;;19.52;10.07;;;0.40;99.90;;;;;;4998984;28;20049;-87
2022/03/06 04:35:37;;;;;;;18.58;10.55;;;-1.00;99.90;;;;;;4999114;28;20046;-88
2022/03/06 04:38:03;;;;;;;18.65;10.15;;;0.60;99.90;;;;;;4998154;28;20583;-87
2022/03/06 04:40:29;;;;;;;19.10;10.40;;;-0.50;99.90;;;;;;4998567;28;20139;-87
2022/03/06 04:42:55;;;;;;;17.92;10.23;;;0.60;99.90;;;;;;5001514;28;20126;-86
2022/03/06 04:45:25;;;;;;;16.83;9.82;;;-0.80;99.90;;;;;;5014983;28;20053;-88
2022/03/06 04:47:51;;;;;;;20.33;10.05;;;;;;;;;;4998632;28;20192;-87
2022/03/06 04:50:17;;;;;;;;;;;-0.90;99.90;;;;;;4998882;28;20093;-88
2022/03/06 04:52:47;;;;;;;20.48;10.68;;;0.60;99.90;;;;;;5013786;28;19921;-88
2022/03/06 04:55:15;;;;;;;18.70;9.52;;;0.80;99.90;;;;;;5014646;28;20092;-87
2022/03/06 04:57:47;;;;;;;18.58;10.20;;;1.00;99.90;;;;;;5031893;28;20083;-87
2022/03/06 05:00:17;;;;;;;17.58;9.30;;;0.20;99.90;;;;;;5005213;28;20056;-87
2022/03/06 05:02:46;;;;;;;19.75;10.00;;;-0.90;99.90;;;;;;4998055;28;20056;-87
2022/03/06 05:05:13;;;;;;;21.67;10.57;;;0.80;99.90;;;;;;5014421;28;20399;-87
2022/03/06 05:07:39;;;;;;;17.52;10.05;;;-1.50;99.90;;;;;;5017467;28;20053;-87
2022/03/06 05:10:10;;;;;;;21.05;10.90;;;-1.40;99.90;;;;;;5016974;28;20631;-87
2022/03/06 05:12:40;;;;;;;19.73;10.82;;;-1.10;99.90;;;;;;5001449;28;20132;-89
2022/03/06 05:15:10;;;;;;;20.38;9.75;;;-2.00;99.90;;;;;;5017209;28;20549;-87
2022/03/06 05:17:37;;;;;;;24.40;10.90;;;-1.10;99.90;;;;;;5017874;28;20096;-86
2022/03/06 05:20:04;;;;;;;21.15;10.32;;;-0.60;99.90;;;;;;5017357;28;20088;-87
2022/03/06 05:22:30;;;;;;;22.17;10.80;;;-1.50;99.90;;;;;;5000660;28;20083;-87
2022/03/06 05:24:59;;;;;;;18.20;10.32;;;0.50;99.90;;;;;;5017567;28;20053;-87
2022/03/06 05:27:28;;;;;;;22.35;10.00;;;-0.80;99.90;;;;;;5017490;28;20060;-87
2022/03/06 05:30:03;;;;;;;18.80;9.65;;;-0.30;99.90;;;;;;5017155;28;20072;-87
2022/03/06 05:32:29;;;;;;;20.30;10.63;;;;;;;;;;5014040;28;20129;-87
2022/03/06 05:34:55;;;;;;;18.17;9.38;;;-1.20;99.90;;;;;;5013872;28;20046;-86
2022/03/06 05:37:23;;;;;;;20.00;9.57;;;-1.20;99.90;;;;;;5024500;28;20052;-87
2022/03/06 05:39:49;;;;;;;19.17;8.60;;;0.10;99.90;;;;;;4984704;28;20045;-88
2022/03/06 05:42:17;;;;;;;17.00;8.77;;;-0.90;99.90;;;;;;5000474;28;20044;-88
2022/03/06 05:44:48;;;;;;;18.42;8.48;;;0.40;99.90;;;;;;5017058;28;20049;-88
2022/03/06 05:47:14;;;;;;;18.33;9.18;;;0.20;99.90;;;;;;5012278;28;20053;-88
2022/03/06 05:49:43;;;;;;;21.83;8.93;;;0.70;99.90;;;;;;5017022;28;20045;-87
2022/03/06 05:52:19;;;;;;;17.10;9.18;;;-1.20;99.90;;;;;;5032315;28;20133;-89
2022/03/06 05:54:45;;;;;;;16.95;8.70;;;-0.10;99.90;;;;;;5001342;28;20053;-88
2022/03/06 05:57:11;;;;;;;18.15;8.38;;;-0.30;99.90;;;;;;5016724;28;20049;-88
2022/03/06 05:59:37;;;;;;;18.63;8.98;;;-0.20;99.90;;;;;;5016993;28;20049;-88
2022/03/06 06:02:03;;;;;;;16.27;8.50;;;-0.60;99.90;;;;;;5016283;28;20101;-87
2022/03/06 06:04:28;;;;;;;;;;;-0.80;99.90;;;;;;5017352;28;20080;-88
2022/03/06 06:07:02;;;;;;;14.63;7.75;;;-1.00;99.90;;;;;;5016453;28;19975;-88
2022/03/06 06:09:28;;;;;;;19.38;8.07;;;-1.60;99.90;;;;;;5033437;28;20076;-87
2022/03/06 06:11:53;;;;;;;18.40;8.70;;;-0.10;99.90;;;;;;5016403;28;20487;-89
2022/03/06 06:14:19;;;;;;;13.93;7.32;;;-0.80;99.90;;;;;;5016869;28;20045;-88
2022/03/06 06:16:45;;;;;;;15.27;7.57;;;-1.10;99.90;;;;;;5016493;28;20140;-87
2022/03/06 06:19:11;;;;;;;17.08;7.45;;;0.40;99.90;;;;;;5000291;28;20045;-87
2022/03/06 06:21:44;;;;;;;11.05;6.47;;;-1.00;99.90;;;;;;5016345;28;20132;-88
2022/03/06 06:24:18;;;;;;;13.55;6.55;;;0.30;99.90;;;;;;5016116;28;20045;-88
2022/03/06 06:26:55;;;;;;;14.65;7.20;;;0.30;99.90;;;;;;5016186;28;20053;-87
2022/03/06 06:29:23;;;;;;;16.05;7.40;;;-1.00;99.90;;;;;;5032878;28;20041;-88
2022/03/06 06:31:49;;;;;;;13.82;6.60;;;-1.10;99.90;;;;;;5015977;28;20132;-89
2022/03/06 06:34:16;;;;;;;12.93;6.55;;;0.30;99.90;;;;;;5015567;28;20037;-87
2022/03/06 06:36:44;;;;;;;15.02;6.30;;;-1.00;99.90;;;;;;5015537;28;20053;-87
2022/03/06 06:39:12;;;;;;;11.60;6.50;;;0.60;99.90;;;;;;5015881;28;20199;-88
2022/03/06 06:41:41;;;;;;;13.32;5.75;;;0.80;99.90;;;;;;5032495;28;20041;-87
2022/03/06 06:44:07;;;;;;;13.80;6.60;;;0.70;99.90;;;;;;5032141;28;20042;-88
2022/03/06 06:46:34;;;;;;;10.75;5.45;;;0.00;99.90;;;;;;5015711;28;20483;-87
2022/03/06 06:49:00;;;;;;;10.15;5.15;;;-0.50;99.90;;;;;;5015612;28;20048;-88
2022/03/06 06:51:29;;;;;;;13.95;5.03;;;0.70;99.90;;;;;;5015551;28;20053;-87
2022/03/06 06:53:58;;;;;;;13.55;5.43;;;0.20;99.90;;;;;;5015436;28;20038;-87
2022/03/06 06:56:26;;;;;;;10.70;4.88;;;-0.70;99.90;;;;;;5015571;28;20073;-87
2022/03/06 06:58:54;;;;;;;9.93;5.22;;;-0.10;99.90;;;;;;5015686;28;20045;-88
2022/03/06 07:01:22;;;;;;;10.20;4.97;;;-0.30;99.90;;;;;;5015250;28;20041;-87
2022/03/06 07:03:57;;;;;;;8.98;4.10;;;-1.10;99.90;;;;;;4999579;28;20136;-89
2022/03/06 07:06:23;;;;;;;10.68;4.85;;;1.10;99.90;;;;;;5015744;28;20045;-87
2022/03/06 07:08:58;;;;;;;10.40;5.20;;;0.50;99.90;;;;;;5015480;28;20052;-87
2022/03/06 07:11:24;;;;;;;9.52;5.10;;;0.90;99.90;;;;;;5030785;28;20049;-88
2022/03/06 07:13:49;;;;;;;9.70;4.63;;;1.20;99.90;;;;;;5005689;28;20107;-87
2022/03/06 07:16:18;;;;;;;8.52;4.63;;;-0.10;99.90;;;;;;5015071;28;20060;-87
2022/03/06 07:18:45;;;;;;;11.73;4.50;;;-0.50;99.90;;;;;;5032011;28;20048;-87
2022/03/06 07:21:14;;;;;;;10.45;4.20;;;1.60;99.90;;;;;;5014880;28;20050;-87
2022/03/06 07:23:44;;;;;;;6.68;3.50;;;1.60;99.90;;;;;;5015456;28;20049;-87
2022/03/06 07:26:13;;;;;;;9.98;3.90;;;0.50;99.90;;;;;;5031583;28;20073;-89
2022/03/06 07:28:38;;;;;;;6.95;3.60;;;1.50;99.90;;;;;;5031953;28;20060;-90
2022/03/06 07:31:12;;;;;;;9.32;4.40;;;0.70;99.90;;;;;;5015516;28;20041;-88
2022/03/06 07:33:38;;;;;;;8.65;3.60;;;0.90;99.90;;;;;;5015640;28;20054;-91
2022/03/06 07:36:05;;;;;;;10.00;4.55;;;1.40;99.90;;;;;;5015193;28;20045;-89
2022/03/06 07:38:33;;;;;;;10.18;3.90;;;0.30;99.90;;;;;;4997045;28;20081;-87
2022/03/06 07:41:01;;;;;;;8.50;3.90;;;0.40;99.90;;;;;;4995290;28;20089;-87
2022/03/06 07:43:30;;;;;;;8.23;3.95;;;0.40;99.90;;;;;;4995145;28;20046;-87
2022/03/06 07:45:56;;;;;;;7.95;3.58;;;0.30;99.90;;;;;;4995488;28;20050;-87
2022/03/06 07:48:24;;;;;;;8.73;3.60;;;1.70;99.90;;;;;;5005501;28;20609;-89
2022/03/06 07:50:50;;;;;;;11.20;4.00;;;0.40;99.90;;;;;;5015012;28;20073;-89
2022/03/06 07:53:16;;;;;;;7.40;4.07;;;1.70;99.90;;;;;;4998668;28;20057;-88
2022/03/06 07:55:42;;;;;;;8.93;3.70;;;0.60;99.90;;;;;;5015221;28;20564;-88
2022/03/06 07:58:08;;;;;;;10.07;3.88;;;1.70;99.90;;;;;;5014828;28;20049;-89
2022/03/06 08:00:33;;;;;;;10.57;3.85;;;1.90;99.90;;;;;;5015363;28;20506;-87
2022/03/06 08:03:08;;;;;;;10.23;3.85;;;1.30;99.90;;;;;;5014973;28;20049;-88
2022/03/06 08:05:36;;;;;;;9.95;3.92;;;0.30;99.90;;;;;;5001385;28;20107;-87
2022/03/06 08:08:02;;;;;;;7.85;4.22;;;1.80;99.90;;;;;;5018079;28;20049;-87
2022/03/06 08:10:28;;;;;;;11.02;4.40;;;0.50;99.90;;;;;;5017844;28;20150;-87
2022/03/06 08:12:54;;;;;;;9.00;3.88;;;1.80;99.90;;;;;;5002161;28;20049;-88
2022/03/06 08:15:20;;;;;;;7.60;4.05;;;0.30;99.90;;;;;;5001917;28;20059;-87
2022/03/06 08:17:46;;;;;;;7.95;3.72;;;0.60;99.90;;;;;;5002047;28;20075;-87
2022/03/06 08:20:12;;;;;;;7.90;4.10;;;-0.30;99.90;;;;;;5018011;28;20046;-87
2022/03/06 08:22:38;;;;;;;7.30;4.32;;;;;;;;;;4982105;28;20132;-87
2022/03/06 08:25:07;;;;;;;11.07;4.20;;;0.70;99.90;;;;;;4998641;28;20430;-87
2022/03/06 08:27:33;;;;;;;7.88;3.92;;;0.80;99.90;;;;;;4998494;28;20485;-87
2022/03/06 08:30:00;;;;;;;7.55;3.70;;;;;;;;;;4998374;28;20107;-87
2022/03/06 08:32:29;;;;;;;7.60;3.67;;;0.80;99.90;;;;;;5014499;28;20061;-87
2022/03/06 08:34:55;;;;;;;7.78;4.10;;;2.20;99.90;;;;;;4982792;28;20054;-87
2022/03/06 08:37:21;;;;;;;7.00;3.60;;;2.10;99.90;;;;;;4981648;28;20053;-87
2022/03/06 08:39:48;;;;;;;7.13;3.85;;;1.90;99.90;;;;;;5004793;28;20399;-88
2022/03/06 08:42:17;;;;;;;7.70;3.30;;;0.20;99.90;;;;;;5017125;28;20502;-87
2022/03/06 08:44:43;;;;;;;6.20;3.63;;;1.10;99.90;;;;;;5014218;28;20499;-87
2022/03/06 08:47:09;;;;;;;;;;;1.80;99.90;;;;;;5010845;28;20053;-88
2022/03/06 08:49:37;;;;;;;6.00;3.42;;;2.00;99.90;;;;;;5017630;28;19987;-87
2022/03/06 08:52:03;;;;;;;6.57;3.60;;;1.20;99.90;;;;;;5016977;28;20061;-88
2022/03/06 08:54:29;;;;;;;9.00;3.83;;;1.00;99.90;;;;;;5013797;28;20050;-86
2022/03/06 08:56:57;;;;;;;5.25;3.30;;;2.20;99.90;;;;;;5034062;28;20068;-87
2022/03/06 08:59:23;;;;;;;6.70;3.00;;;2.50;99.90;;;;;;5033600;28;20517;-87
2022/03/06 09:01:48;;;;;;;12.90;3.40;;;2.10;99.90;;;;;;4997574;28;20038;-87
2022/03/06 09:04:14;;;;;;;7.28;3.00;;;2.10;99.90;;;;;;4997514;28;20046;-86
2022/03/06 09:06:41;;;;;;;8.32;3.33;;;1.30;99.90;;;;;;5032242;28;20046;-87
2022/03/06 09:09:07;;;;;;;8.50;3.50;;;2.60;99.90;;;;;;5001343;28;20080;-87
2022/03/06 09:11:36;;;;;;;5.13;3.13;;;2.70;99.90;;;;;;5000582;28;20099;-87
2022/03/06 09:14:02;;;;;;;8.02;3.50;;;1.40;99.90;;;;;;5033469;28;20087;-87
2022/03/06 09:16:28;;;;;;;6.40;3.78;;;0.50;99.90;;;;;;4982134;28;20085;-88
2022/03/06 09:18:54;;;;;;;8.20;3.90;;;2.90;99.90;;;;;;4998121;28;20042;-88
2022/03/06 09:21:25;;;;;;;7.50;4.00;;;2.70;99.90;;;;;;4981131;28;20141;-88
2022/03/06 09:24:01;;;;;;;8.00;3.45;;;3.10;99.90;;;;;;5016814;28;20046;-87
2022/03/06 09:26:30;;;;;;;7.90;3.55;;;1.60;99.90;;;;;;5016963;28;20053;-87
2022/03/06 09:29:00;;;;;;;8.85;4.20;;;3.10;99.90;;;;;;5017114;28;20057;-87
2022/03/06 09:31:26;;;;;;;6.18;3.42;;;;;;;;;;5000604;28;20445;-87
2022/03/06 09:33:57;;;;;;;7.75;3.72;;;1.90;99.90;;;;;;5010065;28;20052;-87
2022/03/06 09:36:26;;;;;;;8.13;4.43;;;1.00;99.90;;;;;;4997362;28;20045;-87
2022/03/06 09:38:51;;;;;;;7.78;3.65;;;2.60;99.90;;;;;;5013608;28;20079;-87
2022/03/06 09:41:24;;;;;;;8.23;3.50;;;2.10;99.90;;;;;;4985407;28;20128;-88
2022/03/06 09:43:59;;;;;;;6.17;3.70;;;2.50;99.90;;;;;;5007060;28;20092;-87
2022/03/06 09:46:25;;;;;;;10.23;5.05;;;2.20;99.90;;;;;;4982552;28;20084;-87
2022/03/06 09:48:54;;;;;;;9.73;4.35;;;2.20;99.90;;;;;;5006971;28;20048;-88
2022/03/06 09:51:22;;;;;;;10.82;4.07;;;3.30;99.90;;;;;;5008470;28;20053;-88
2022/03/06 09:53:51;;;;;;;6.80;3.78;;;3.70;99.90;;;;;;4998177;28;20085;-87
2022/03/06 09:56:17;;;;;;;7.88;4.18;;;3.30;99.90;;;;;;5016873;28;20055;-89
2022/03/06 09:58:49;;;;;;;8.02;4.00;;;2.40;99.90;;;;;;4995641;28;20049;-91
2022/03/06 10:01:15;;;;;;;8.18;4.15;;;2.50;99.90;;;;;;5007341;28;20081;-88
2022/03/06 10:03:41;;;;;;;8.68;4.00;;;3.60;99.90;;;;;;5015202;28;20085;-87
2022/03/06 10:06:12;;;;;;;8.50;4.60;;;3.80;99.90;;;;;;5030177;28;20053;-88
2022/03/06 10:08:40;;;;;;;9.90;4.35;;;4.00;99.90;;;;;;5014430;28;20081;-87
2022/03/06 10:11:10;;;;;;;8.40;3.92;;;1.80;99.90;;;;;;5016010;28;20056;-90
2022/03/06 10:13:42;;;;;;;6.60;3.95;;;2.90;99.90;;;;;;5014946;28;20045;-92
2022/03/06 10:16:13;;;;;;;11.38;4.03;;;3.00;99.90;;;;;;5016067;28;20041;-89
2022/03/06 10:18:50;;;;;;;6.05;3.40;;;3.00;99.90;;;;;;5010526;28;20055;-85
2022/03/06 10:21:25;;;;;;;8.50;3.15;;;4.20;99.90;;;;;;5010298;28;20045;-88
2022/03/06 10:24:17;;;;;;;8.65;4.07;;;3.00;99.90;;;;;;5031481;28;20132;-87
2022/03/06 10:27:00;;;;;;;;;;;;;;;;;;;;;
2022/03/06 10:29:35;;;;;;;8.90;3.67;;;4.30;99.90;;;;;;5017690;28;20045;-91
2022/03/06 10:32:28;;;;;;;;;;;;;;;;;;;;;
2022/03/06 10:35:17;;;;;;;7.55;3.80;;;3.50;99.90;;;;;;5017947;28;20487;-92
2022/03/06 10:38:02;;;;;;;6.57;4.10;;;3.50;99.90;;;;;;5016380;28;20095;-86
2022/03/06 10:40:43;;;;;;;6.25;3.28;;;3.50;99.90;;;;;;5015464;28;20045;-87
2022/03/06 10:43:31;;;;;;;7.30;3.47;;;3.50;99.90;;;;;;4998582;28;20112;-89
2022/03/06 10:46:19;;;;;;;6.95;3.95;;;3.60;99.90;;;;;;4997793;28;20046;-87
2022/03/06 10:49:27;;;;;;;;;;;;;;;;;;;;;
2022/03/06 10:52:03;;;;;;;;;;;;;;;;;;;;;
2022/03/06 10:54:47;;;;;;;7.43;3.78;;;3.90;99.90;;;;;;5032230;28;20049;-91
2022/03/06 10:57:18;;;;;;;8.03;3.30;;;3.90;99.90;;;;;;5015393;28;20077;-88
2022/03/06 10:59:52;;;;;;;5.72;3.15;;;4.10;99.90;;;;;;4993502;28;20053;-89
2022/03/06 11:02:20;;;;;;;10.70;4.10;;;4.20;99.90;;;;;;5012651;28;20038;-89
2022/03/06 11:04:47;;;;;;;10.10;3.35;;;5.20;99.90;;;;;;5029064;28;20095;-89
2022/03/06 11:07:19;;;;;;;7.57;2.97;;;5.20;99.90;;;;;;5014585;28;20553;-88
2022/03/06 11:09:52;;;;;;;6.45;3.28;;;4.10;99.90;;;;;;4996800;28;20037;-88
2022/03/06 11:12:26;;;;;;;8.23;3.30;;;4.30;99.90;;;;;;5007006;28;20054;-89
2022/03/06 11:15:24;;;;;;;8.23;2.67;;;4.40;99.90;;;;;;5004627;28;20831;-89
2022/03/06 11:17:49;;;;;;;4.65;2.50;;;3.60;99.90;;;;;;5028788;28;20049;-89
2022/03/06 11:20:18;;;;;;;5.28;2.75;;;4.60;99.90;;;;;;5015614;28;20105;-88
2022/03/06 11:23:02;;;;;;;5.50;2.42;;;4.80;99.80;;;;;;5014561;28;20038;-88
2022/03/06 11:25:33;;;;;;;5.20;2.60;;;4.50;99.50;;;;;;5015409;28;20049;-89
2022/03/06 11:28:39;;;;;;;;;;;;;;;;;;;;;
2022/03/06 11:31:13;;;;;;;6.32;2.80;;;4.90;97.30;;;;;;5032150;28;20139;-88
2022/03/06 11:33:55;;;;;;;6.95;2.63;;;5.70;97.60;;;;;;5015084;28;20050;-89
2022/03/06 11:36:26;;;;;;;6.07;2.42;;;5.20;97.10;;;;;;5013174;28;20494;-90
2022/03/06 11:39:01;;;;;;;3.35;2.30;;;5.30;95.00;;;;;;5010630;28;20049;-89
2022/03/06 11:41:37;;;;;;;6.22;2.60;;;5.80;92.40;;;;;;5015908;28;20046;-91
2022/03/06 11:44:38;;;;;;;4.45;2.50;;;5.30;90.80;;;;;;5015923;28;20057;-87
2022/03/06 11:47:30;;;;;;;4.30;2.42;;;5.50;92.60;;;;;;4999680;28;20058;-87
2022/03/06 11:50:19;;;;;;;5.00;2.58;;;5.80;92.70;;;;;;4999277;28;20454;-87
2022/03/06 11:52:50;;;;;;;6.13;2.63;;;6.10;94.30;;;;;;4999089;28;20053;-87
2022/03/06 11:55:32;;;;;;;5.30;2.45;;;6.40;90.60;;;;;;4999969;28;20137;-87
2022/03/06 11:58:13;;;;;;;;;;;;;;;;;;;;;
2022/03/06 12:00:48;;;;;;;4.63;2.67;;;6.80;96.50;;;;;;5000494;28;20061;-87
2022/03/06 12:03:23;;;;;;;5.57;2.35;;;7.20;96.90;;;;;;5016639;28;20077;-87
2022/03/06 12:06:04;;;;;;;;;;;;;;;;;;;;;
2022/03/06 12:08:43;;;;;;;4.80;2.40;;;7.50;95.90;;;;;;5019771;28;20048;-89
2022/03/06 12:11:17;;;;;;;4.75;2.58;;;7.80;94.80;;;;;;5035520;28;20058;-88
2022/03/06 12:13:52;;;;;;;7.55;2.70;;;8.30;97.50;;;;;;5018216;28;20095;-87
2022/03/06 12:16:20;;;;;;;6.47;2.70;;;8.20;90.10;;;;;;5002734;28;20475;-87
2022/03/06 12:19:11;;;;;;;6.90;2.58;;;8.10;86.00;;;;;;5034848;28;20045;-88
2022/03/06 12:21:40;;;;;;;5.63;2.55;;;8.10;80.50;;;;;;5017739;28;20430;-87
2022/03/06 12:24:29;;;;;;;6.55;2.72;;;8.00;77.00;;;;;;5034885;28;20056;-87
2022/03/06 12:26:57;;;;;;;4.18;2.40;;;8.40;76.40;;;;;;5014930;28;20107;-87
2022/03/06 12:29:48;;;;;;;5.45;2.53;;;8.00;80.00;;;;;;5015854;28;20423;-87
2022/03/06 12:32:26;;;;;;;7.57;3.10;;;8.10;78.10;;;;;;4998744;28;20046;-88
2022/03/06 12:35:08;;;;;;;5.93;2.75;;;8.20;76.40;;;;;;5032133;28;20049;-88
2022/03/06 12:37:36;;;;;;;5.53;2.53;;;8.30;75.40;;;;;;4993400;28;20505;-87
2022/03/06 12:40:11;;;;;;;6.22;2.67;;;8.60;80.00;;;;;;5025887;28;21417;-88
2022/03/06 12:42:41;;;;;;;6.78;2.63;;;9.00;81.90;;;;;;5000574;28;20494;-88
2022/03/06 12:45:10;;;;;;;5.70;2.47;;;9.20;83.70;;;;;;5007947;28;20060;-86
2022/03/06 12:47:40;;;;;;;4.82;2.40;;;9.40;77.80;;;;;;5017485;28;20057;-87
2022/03/06 12:50:18;;;;;;;6.70;2.80;;;9.50;73.70;;;;;;5002317;28;20132;-87
2022/03/06 12:52:46;;;;;;;5.90;2.67;;;9.00;72.60;;;;;;5032913;28;20479;-88
2022/03/06 12:55:22;;;;;;;4.50;2.50;;;9.30;70.60;;;;;;5022536;28;20077;-89
2022/03/06 12:57:58;;;;;;;5.90;2.55;;;8.30;66.40;;;;;;4998702;28;20080;-87
2022/03/06 13:00:35;;;;;;;6.65;2.88;;;8.40;68.00;;;;;;5014545;28;20373;-88
2022/03/06 13:03:05;;;;;;;5.82;2.70;;;8.40;69.70;;;;;;5014607;28;20559;-88
2022/03/06 13:05:36;;;;;;;9.50;2.70;;;8.80;73.20;;;;;;5014598;28;20054;-88
2022/03/06 13:08:07;;;;;;;6.20;2.63;;;9.20;70.00;;;;;;5014126;28;20168;-88
2022/03/06 13:10:33;;;;;;;4.82;2.30;;;9.30;69.20;;;;;;5014376;28;20054;-89